ETNL/RLG METAR and TAF weather

Enter ICAO airport designator
Station Type Date Time Source
ETNL METAR 2019/02/23 16:20 UTC NOAA

ETNL 231620Z 17003KT 9999 FEW130 BKN340 04/M09 Q1041 BLU+


Station Type Date Time Source
ETNL Decoded METAR 2019/02/23 16:20 UTC NOAA

Laage, Germany (ETNL) 53-55N 012-17E 46M
Feb 23, 2019 - 11:20 AM EST / 2019.02.23 1620 UTC
Wind: from the S (170 degrees) at 3 MPH (3 KT):0
Visibility: greater than 7 mile(s):0
Sky conditions: mostly cloudy
Temperature: 39 F (4 C)
Dew Point: 15 F (-9 C)
Relative Humidity: 38%
Pressure (altimeter): 30.74 in. Hg (1041 hPa)
ob: ETNL 231620Z 17003KT 9999 FEW130 BKN340 04/M09 Q1041 BLU+
cycle: 16

Station Type Date Time Source
ETNL TAF 2019/02/17 00:37 UTC NOAA

TAF ETNL 172300Z 1800/1818 16005KT 7000 NSW BKN280
BECMG 1801/1803 22005KT 4000 BR BKN250 PROB30 1303/1807 18003KT 2000 BR BKN010
BECMG 1808/1810 24008KT 9999 NSW BKN250 BY ETGL


Example: see airport list